Time;durP1;ratioP1;P1;durP2;ratioP2;P2;SDS_P1;SDS_P2;PMS_P1;PMS_P2;Temp;Humidity;BMP_temperature;BMP_pressure;BME280_temperature;BME280_humidity;BME280_pressure;Samples;Min_cycle;Max_cycle;Signal;HPM_P1;HPM_P2
2022/01/23 00:03:34;;;;;;;4.38;3.92;;;;;;;21.44;25.89;97972.34;13067078;22;21045;-55
2022/01/23 00:08:54;;;;;;;4.45;3.80;;;;;;;21.39;26.18;97970.53;13067131;22;20018;-55
2022/01/23 00:19:59;;;;;;;4.22;3.83;;;;;;;21.29;26.30;97978.91;13067110;22;20064;-54
2022/01/23 00:31:01;;;;;;;3.42;3.10;;;;;;;21.18;26.44;97969.41;13024987;22;20023;-55
2022/01/23 00:36:22;;;;;;;4.40;3.13;;;;;;;21.14;26.59;97975.44;13045129;22;20011;-55
2022/01/23 00:41:41;;;;;;;4.35;3.13;;;;;;;21.08;26.61;97973.16;13044564;22;20023;-55
2022/01/23 00:47:04;;;;;;;4.00;3.45;;;;;;;21.04;26.61;97958.63;13066507;22;20086;-55
2022/01/23 00:52:23;;;;;;;3.70;3.33;;;;;;;20.98;26.72;97966.06;13044753;22;20015;-54
2022/01/23 00:57:43;;;;;;;4.43;3.40;;;;;;;20.93;26.82;97964.28;13045517;22;20513;-54
2022/01/23 01:03:03;;;;;;;4.03;3.20;;;;;;;20.90;26.87;97958.66;13044962;22;20030;-54
2022/01/23 01:08:22;;;;;;;3.25;2.92;;;;;;;20.86;26.88;97960.38;13065851;22;20505;-53
2022/01/23 01:30:56;;;;;;;3.22;2.60;;;;;;;20.68;27.24;97965.63;13042722;22;20018;-55
2022/01/23 01:36:20;;;;;;;3.28;2.65;;;;;;;20.63;27.23;97963.00;13022031;22;20011;-54
2022/01/23 01:41:41;;;;;;;3.13;2.83;;;;;;;20.60;27.26;97955.50;13044872;22;20061;-55
2022/01/23 01:47:01;;;;;;;2.80;2.50;;;;;;;20.55;27.43;97934.72;13044631;22;20435;-55
2022/01/23 01:52:26;;;;;;;3.75;2.50;;;;;;;20.51;27.50;97936.44;13021193;22;20144;-55
2022/01/23 01:57:51;;;;;;;2.83;2.30;;;;;;;20.45;27.46;97934.94;13021248;22;20011;-55
2022/01/23 02:09:44;;;;;;;3.63;2.60;;;;;;;20.37;27.59;97962.72;12827473;23;20017;-55
2022/01/23 03:00:17;;;;;;;3.17;1.90;;;;;;;20.00;28.22;97961.00;13047161;22;20249;-54
2022/01/23 03:33:46;;;;;;;2.33;1.80;;;;;;;19.79;28.54;97971.34;13023923;22;20513;-54
2022/01/23 03:39:09;;;;;;;3.00;2.45;;;;;;;19.74;28.81;97961.44;13046469;22;20447;-55
2022/01/23 03:44:29;;;;;;;1.95;1.80;;;;;;;19.69;28.68;97962.28;13046080;22;20016;-55
2022/01/23 03:49:50;;;;;;;2.10;1.90;;;;;;;19.66;28.80;97960.19;13023078;22;20026;-55
2022/01/23 03:55:28;;;;;;;2.20;2.00;;;;;;;19.63;28.77;97959.97;13022639;22;20562;-55
2022/01/23 04:00:48;;;;;;;2.45;2.25;;;;;;;19.59;29.00;97948.16;13067472;22;20011;-55
2022/01/23 04:06:08;;;;;;;2.20;1.98;;;;;;;19.58;29.08;97968.16;13066771;22;20015;-54
2022/01/23 04:11:29;;;;;;;2.70;2.28;;;;;;;19.52;29.04;97962.84;13023237;22;20094;-55
2022/01/23 04:31:44;;;;;;;2.90;2.53;;;;;;;19.44;29.24;97977.00;12786297;23;20021;-55
2022/01/23 04:45:33;;;;;;;2.43;2.13;;;;;;;19.30;29.47;97998.56;13042981;22;20015;-55
2022/01/23 05:07:56;;;;;;;2.42;2.22;;;;;;;19.15;29.57;98028.50;13065933;22;20034;-54
2022/01/23 05:13:42;;;;;;;2.70;2.15;;;;;;;19.12;29.74;98018.31;13013320;22;20015;-54
2022/01/23 05:19:06;;;;;;;2.35;2.08;;;;;;;19.09;29.76;98029.69;13042848;22;20090;-55
2022/01/23 05:24:32;;;;;;;2.10;1.88;;;;;;;19.05;29.89;98034.88;13044499;22;20015;-55
2022/01/23 05:29:52;;;;;;;2.47;2.22;;;;;;;-146.19;100.00;65364.44;13045549;22;20026;-55
2022/01/23 05:35:14;;;;;;;2.10;1.90;;;;;;;-146.19;100.00;65364.44;13045103;22;20023;-55
2022/01/23 05:40:34;;;;;;;2.15;1.90;;;;;;;-146.19;100.00;65364.44;13021601;22;20022;-54
2022/01/23 05:45:56;;;;;;;2.08;1.88;;;;;;;-146.19;100.00;65364.44;13024523;22;20015;-55
2022/01/23 05:51:21;;;;;;;2.17;1.92;;;;;;;-146.19;100.00;65364.44;13048848;22;20451;-54
2022/01/23 05:56:56;;;;;;;1.88;1.67;;;;;;;-146.19;100.00;65364.44;13048544;22;20011;-54
2022/01/23 06:02:34;;;;;;;1.80;1.70;;;;;;;-146.19;100.00;65364.44;13048930;22;20042;-53
2022/01/23 06:07:54;;;;;;;2.28;1.85;;;;;;;-146.19;100.00;65364.44;13049127;22;20019;-55
2022/01/23 06:13:14;;;;;;;1.98;1.67;;;;;;;-146.19;100.00;65364.44;13049765;22;20368;-55
2022/01/23 06:18:36;;;;;;;1.85;1.55;;;;;;;-146.19;100.00;65364.44;13049310;22;20023;-55
2022/01/23 06:24:25;;;;;;;1.70;1.60;;;;;;;-146.19;100.00;65364.44;13048689;22;20022;-55
2022/01/23 06:30:04;;;;;;;2.17;1.77;;;;;;;-146.19;100.00;65364.44;13049235;22;20019;-54
2022/01/23 06:35:23;;;;;;;1.63;1.48;;;;;;;-146.19;100.00;65364.44;13048245;22;20015;-54
2022/01/23 06:40:43;;;;;;;2.25;1.50;;;;;;;-146.19;100.00;65364.44;13047933;22;20050;-54
2022/01/23 06:46:09;;;;;;;2.17;1.80;;;;;;;-146.19;100.00;65364.44;13069506;22;20021;-54
2022/01/23 06:51:29;;;;;;;1.60;1.50;;;;;;;-146.19;100.00;65364.44;13025555;22;20518;-54
2022/01/23 06:56:49;;;;;;;1.48;1.30;;;;;;;-146.19;100.00;65364.44;13023944;22;20112;-55
2022/01/23 07:02:09;;;;;;;1.48;1.30;;;;;;;-146.19;100.00;65364.44;13069011;22;20335;-55
2022/01/23 07:07:52;;;;;;;1.50;1.40;;;;;;;-146.19;100.00;65364.44;13024160;22;20527;-54
2022/01/23 07:13:34;;;;;;;1.63;1.50;;;;;;;-146.19;100.00;65364.44;13015783;22;20085;-55
2022/01/23 07:19:17;;;;;;;1.50;1.30;;;;;;;-146.19;100.00;65364.44;13068160;22;20018;-54
2022/01/23 07:24:43;;;;;;;1.40;1.30;;;;;;;-146.19;100.00;65364.44;13024098;22;20085;-55
2022/01/23 07:30:05;;;;;;;1.25;1.15;;;;;;;-146.19;100.00;65364.44;13025056;22;20347;-54
2022/01/23 07:35:25;;;;;;;1.30;1.20;;;;;;;-146.19;100.00;65364.44;13020507;22;20067;-54
2022/01/23 07:40:46;;;;;;;1.58;1.42;;;;;;;-146.19;100.00;65364.44;13045213;22;20439;-55
2022/01/23 07:46:12;;;;;;;1.40;1.30;;;;;;;-146.19;100.00;65364.44;13024104;22;20082;-54
2022/01/23 07:51:50;;;;;;;1.30;1.20;;;;;;;19.05;29.89;98034.88;13047081;22;20042;-54
2022/01/23 07:57:31;;;;;;;1.67;1.30;;;;;;;19.10;30.47;98142.84;13023635;22;20106;-54
2022/01/23 08:03:10;;;;;;;1.45;1.30;;;;;;;19.15;30.34;98142.78;13066535;22;20012;-54
2022/01/23 08:08:50;;;;;;;1.73;1.63;;;;;;;19.13;30.05;98153.06;13039870;22;20019;-54
2022/01/23 08:14:19;;;;;;;1.40;1.30;;;;;;;19.15;31.30;98161.69;13067515;22;20019;-53
2022/01/23 08:19:39;;;;;;;1.08;1.00;;;;;;;19.21;31.69;98165.16;13044703;22;20015;-55
2022/01/23 08:25:01;;;;;;;1.20;1.10;;;;;;;19.26;31.76;98166.97;13045861;22;20335;-54
2022/01/23 08:30:21;;;;;;;1.80;1.30;;;;;;;19.30;31.77;98181.50;13045425;22;20027;-54
2022/01/23 08:35:43;;;;;;;1.50;1.30;;;;;;;19.35;31.78;98186.88;13066983;22;20014;-55
2022/01/23 08:46:31;;;;;;;1.20;1.10;;;;;;;19.43;31.87;98194.31;13065966;22;20068;-55
2022/01/23 08:51:52;;;;;;;1.30;1.10;;;;;;;19.46;32.05;98192.94;13065920;22;20041;-55
2022/01/23 08:57:12;;;;;;;1.52;1.10;;;;;;;19.50;32.01;98192.09;13044221;22;20012;-55
2022/01/23 09:02:32;;;;;;;1.20;1.10;;;;;;;19.54;32.24;98200.41;13066402;22;20450;-55
2022/01/23 09:07:52;;;;;;;1.25;1.15;;;;;;;19.56;32.27;98206.31;13043788;22;20351;-54
2022/01/23 09:13:29;;;;;;;1.33;1.20;;;;;;;19.61;32.23;98216.28;13064411;22;20015;-55
2022/01/23 09:18:49;;;;;;;0.98;0.93;;;;;;;19.65;32.37;98222.72;13045114;22;20711;-54
2022/01/23 09:24:08;;;;;;;1.27;1.10;;;;;;;19.68;32.29;98227.53;13044095;22;20463;-54
2022/01/23 09:29:41;;;;;;;1.63;1.52;;;;;;;19.51;29.49;98236.13;13040840;22;20049;-55
2022/01/23 09:35:01;;;;;;;1.40;1.30;;;;;;;19.50;31.64;98226.41;13042109;22;20018;-54
2022/01/23 09:40:20;;;;;;;1.33;1.20;;;;;;;19.63;31.49;98214.88;13020450;22;20092;-54
2022/01/23 09:45:41;;;;;;;2.00;1.33;;;;;;;19.71;31.41;98216.97;13065772;22;20019;-54
2022/01/23 09:51:01;;;;;;;1.30;1.20;;;;;;;19.77;31.49;98220.41;13042694;22;20335;-55
2022/01/23 09:56:27;;;;;;;1.67;1.20;;;;;;;19.84;31.64;98225.47;13065737;22;20021;-55
2022/01/23 10:01:53;;;;;;;1.65;1.30;;;;;;;19.89;31.67;98220.78;13045402;22;20015;-55
2022/01/23 10:07:13;;;;;;;1.25;1.15;;;;;;;19.93;31.79;98229.94;13044588;22;20431;-54
2022/01/23 10:12:33;;;;;;;1.20;0.98;;;;;;;19.98;31.64;98233.66;13045682;22;20044;-54
2022/01/23 10:17:56;;;;;;;1.30;1.17;;;;;;;20.02;31.77;98221.16;13043144;22;20030;-54
2022/01/23 10:23:15;;;;;;;2.17;1.30;;;;;;;20.05;31.93;98221.38;13066092;22;20022;-55
2022/01/23 10:28:35;;;;;;;1.48;1.27;;;;;;;20.10;31.91;98217.78;13066121;22;20026;-54
2022/01/23 10:33:55;;;;;;;1.15;1.05;;;;;;;20.14;31.91;98227.72;13049193;22;20355;-55
2022/01/23 10:39:18;;;;;;;1.40;1.25;;;;;;;20.18;32.00;98225.25;13049094;22;20021;-55
2022/01/23 10:50:21;;;;;;;1.02;1.00;;;;;;;20.27;32.25;98223.50;13069500;22;20016;-55
2022/01/23 10:55:43;;;;;;;1.10;1.00;;;;;;;20.31;32.17;98213.69;13047668;22;20439;-53
2022/01/23 11:01:06;;;;;;;1.35;1.02;;;;;;;20.35;32.12;98206.59;13069262;22;20021;-51
2022/01/23 11:06:25;;;;;;;1.20;1.10;;;;;;;20.40;32.21;98204.88;13069025;22;20035;-55
2022/01/23 11:11:48;;;;;;;1.33;1.17;;;;;;;20.44;32.28;98216.72;13025294;22;20019;-53
2022/01/23 11:17:23;;;;;;;1.30;1.10;;;;;;;20.46;32.39;98215.31;13048398;22;20545;-54
2022/01/23 11:22:42;;;;;;;1.20;1.10;;;;;;;20.51;32.33;98222.59;13069008;22;20069;-55
2022/01/23 11:28:03;;;;;;;1.20;1.10;;;;;;;20.53;32.32;98206.84;13047927;22;20019;-55
2022/01/23 11:33:23;;;;;;;1.00;0.90;;;;;;;20.57;32.30;98204.34;13048100;22;20416;-55
2022/01/23 11:38:44;;;;;;;1.35;1.13;;;;;;;20.58;32.35;98214.88;13047883;22;20432;-55
2022/01/23 11:55:35;;;;;;;0.88;0.88;;;;;;;20.64;32.66;98202.91;13067347;22;20023;-54
2022/01/23 12:01:18;;;;;;;0.90;0.80;;;;;;;20.65;32.61;98207.19;13047500;22;20015;-55
2022/01/23 12:06:42;;;;;;;0.90;0.90;;;;;;;20.66;32.73;98198.00;13046517;22;20094;-55
2022/01/23 12:12:20;;;;;;;1.27;1.17;;;;;;;20.66;32.62;98211.53;13046379;22;20019;-55
2022/01/23 12:17:41;;;;;;;1.20;0.88;;;;;;;20.68;32.77;98209.31;13047000;22;20330;-55
2022/01/23 12:23:01;;;;;;;1.00;0.85;;;;;;;20.67;32.76;98210.41;13067727;22;20474;-56
2022/01/23 12:28:28;;;;;;;0.85;0.85;;;;;;;20.67;32.82;98201.50;13023064;22;20094;-55
2022/01/23 12:33:57;;;;;;;1.10;1.00;;;;;;;20.67;32.79;98209.63;13046939;22;20111;-55
2022/01/23 12:39:18;;;;;;;;;;;;;;;20.65;32.92;98204.50;13046876;22;20520;-52
2022/01/23 12:44:39;;;;;;;0.65;0.65;;;;;;;20.66;32.97;98195.28;13067184;22;19914;-55
2022/01/23 12:49:59;;;;;;;0.85;0.85;;;;;;;20.66;33.03;98186.34;13046302;22;20145;-55
2022/01/23 12:55:19;;;;;;;0.80;0.80;;;;;;;20.65;32.95;98193.66;13044366;22;20027;-55
2022/01/23 13:00:39;;;;;;;0.88;0.88;;;;;;;20.64;33.04;98194.78;13046404;22;20441;-55
2022/01/23 13:05:58;;;;;;;0.95;0.90;;;;;;;20.63;33.19;98185.03;13045601;22;20019;-55
2022/01/23 13:11:50;;;;;;;1.05;0.95;;;;;;;20.63;33.21;98185.03;13046026;22;20092;-54
2022/01/23 13:17:27;;;;;;;0.80;0.75;;;;;;;20.64;33.28;98188.53;13045890;22;20026;-55
2022/01/23 13:34:41;;;;;;;2.05;0.80;;;;;;;20.59;33.32;98197.56;13066473;22;20034;-54
2022/01/23 13:40:08;;;;;;;0.70;0.70;;;;;;;20.59;33.36;98192.16;13066643;22;20015;-55
2022/01/23 14:02:37;;;;;;;0.70;0.70;;;;;;;20.52;33.47;98181.69;13045542;22;20043;-55
2022/01/23 14:07:59;;;;;;;0.80;0.80;;;;;;;20.52;33.77;98187.09;13048046;22;20023;-55
2022/01/23 14:13:19;;;;;;;0.85;0.85;;;;;;;20.50;33.66;98192.00;13026775;22;20026;-55
2022/01/23 14:18:38;;;;;;;0.70;0.70;;;;;;;20.48;33.67;98188.78;13049508;22;20018;-55
2022/01/23 14:23:58;;;;;;;0.70;0.70;;;;;;;20.49;33.78;98192.28;13049310;22;20026;-52
2022/01/23 14:29:17;;;;;;;0.80;0.80;;;;;;;20.48;33.79;98193.38;13070044;22;20022;-54
2022/01/23 14:34:37;;;;;;;0.80;0.80;;;;;;;20.47;33.88;98189.88;13048963;22;20011;-55
2022/01/23 14:40:14;;;;;;;0.73;0.73;;;;;;;20.45;33.85;98196.69;13048831;22;20020;-53
2022/01/23 14:45:39;;;;;;;1.02;0.80;;;;;;;20.44;33.92;98208.59;13048578;22;20020;-54
2022/01/23 14:51:02;;;;;;;0.70;0.70;;;;;;;20.42;33.86;98213.50;13048879;22;20016;-54
2022/01/23 14:56:24;;;;;;;0.70;0.70;;;;;;;20.41;33.99;98217.34;13047058;22;20061;-55
2022/01/23 15:01:46;;;;;;;0.77;0.73;;;;;;;20.39;33.94;98217.63;13048268;22;20453;-54
2022/01/23 15:07:07;;;;;;;0.63;0.60;;;;;;;20.36;33.98;98215.50;13047681;22;20020;-55
2022/01/23 15:12:26;;;;;;;1.00;0.90;;;;;;;20.35;34.13;98206.59;13048307;22;20044;-55
2022/01/23 15:17:46;;;;;;;0.70;0.70;;;;;;;20.35;34.26;98211.19;13024528;22;20015;-54
2022/01/23 15:23:05;;;;;;;0.80;0.70;;;;;;;20.32;34.11;98212.56;13047897;22;20015;-54
2022/01/23 15:28:26;;;;;;;0.70;0.70;;;;;;;20.31;34.32;98226.41;13047830;22;20037;-54
2022/01/23 15:33:46;;;;;;;0.50;0.50;;;;;;;20.29;34.32;98210.47;13047810;22;20022;-54
2022/01/23 15:39:06;;;;;;;0.63;0.63;;;;;;;20.28;34.35;98225.09;13047042;22;20022;-54
2022/01/23 15:44:26;;;;;;;0.80;0.80;;;;;;;20.27;34.18;98238.94;13047462;22;20340;-55
2022/01/23 15:49:45;;;;;;;0.70;0.70;;;;;;;20.25;34.40;98238.44;13047481;22;20447;-55
2022/01/23 15:55:08;;;;;;;0.60;0.60;;;;;;;20.22;34.38;98231.69;13046829;22;20091;-55
2022/01/23 16:00:27;;;;;;;0.80;0.80;;;;;;;20.20;34.46;98233.88;13047145;22;20048;-55
2022/01/23 16:05:47;;;;;;;0.73;0.70;;;;;;;20.19;34.52;98242.28;13046659;22;20403;-55
2022/01/23 16:11:08;;;;;;;0.80;0.80;;;;;;;20.17;34.46;98248.00;13068096;22;20015;-55
2022/01/23 16:16:31;;;;;;;0.63;0.63;;;;;;;20.15;34.58;98252.91;13046918;22;20451;-55
2022/01/23 16:21:55;;;;;;;0.70;0.70;;;;;;;20.11;34.53;98249.97;13047076;22;20020;-55
2022/01/23 16:27:15;;;;;;;0.75;0.75;;;;;;;20.11;34.48;98246.44;13067725;22;20019;-55
2022/01/23 16:32:35;;;;;;;0.73;0.70;;;;;;;20.10;34.60;98251.06;13046771;22;20015;-55
2022/01/23 16:37:54;;;;;;;0.60;0.60;;;;;;;20.08;34.58;98241.63;13045897;22;20082;-54
2022/01/23 16:43:16;;;;;;;0.65;0.65;;;;;;;20.06;34.55;98244.63;13067390;22;20084;-55
2022/01/23 16:48:35;;;;;;;0.70;0.70;;;;;;;20.06;34.68;98268.19;13046338;22;20015;-54
2022/01/23 16:54:00;;;;;;;0.73;0.73;;;;;;;20.03;34.73;98258.75;13043522;22;20011;-55
2022/01/23 16:59:19;;;;;;;0.70;0.70;;;;;;;20.02;34.71;98264.44;13066979;22;20015;-54
2022/01/23 17:04:39;;;;;;;1.30;0.82;;;;;;;20.00;34.79;98262.03;13045604;22;20065;-54
2022/01/23 17:09:58;;;;;;;2.35;2.15;;;;;;;19.81;32.32;98267.41;13045051;22;20069;-54
2022/01/23 17:15:18;;;;;;;1.13;1.00;;;;;;;19.78;34.24;98268.00;13040437;22;20011;-55
2022/01/23 17:20:37;;;;;;;1.73;1.35;;;;;;;19.82;34.17;98265.53;13043640;22;20015;-54
2022/01/23 17:25:57;;;;;;;1.55;1.30;;;;;;;19.84;34.28;98272.25;13041355;22;20077;-55
2022/01/23 17:31:16;;;;;;;1.63;1.15;;;;;;;19.85;34.37;98264.94;13043654;22;20033;-55
2022/01/23 17:36:36;;;;;;;2.53;1.20;;;;;;;19.86;34.49;98266.56;13044999;22;20072;-54
2022/01/23 17:41:55;;;;;;;4.88;1.30;;;;;;;19.88;34.88;98261.66;13046343;22;20086;-54
2022/01/23 17:52:51;;;;;;;2.38;1.02;;;;;;;19.89;35.39;98272.16;13068288;22;20391;-52
2022/01/23 17:58:11;;;;;;;4.13;1.25;;;;;;;19.91;35.46;98280.00;13046996;22;20015;-54
2022/01/23 18:03:31;;;;;;;1.35;1.00;;;;;;;19.91;35.54;98286.19;13068746;22;20458;-54
2022/01/23 18:08:51;;;;;;;2.28;1.20;;;;;;;19.93;35.69;98289.44;13047143;22;20023;-54
2022/01/23 18:14:12;;;;;;;1.90;1.08;;;;;;;19.95;35.72;98298.06;13046788;22;20392;-55
2022/01/23 18:19:32;;;;;;;1.23;1.00;;;;;;;19.99;35.66;98300.19;13069421;22;20098;-53
2022/01/23 18:24:52;;;;;;;1.95;1.05;;;;;;;20.00;35.88;98299.09;13047636;22;20022;-54
2022/01/23 18:30:12;;;;;;;1.67;1.20;;;;;;;20.03;36.01;98298.50;13046432;22;20027;-54
2022/01/23 18:35:32;;;;;;;2.53;1.10;;;;;;;20.05;36.21;98307.13;13046383;22;20481;-54
2022/01/23 18:40:54;;;;;;;2.22;1.10;;;;;;;20.07;35.99;98303.06;13047435;22;20015;-55
2022/01/23 18:46:15;;;;;;;1.50;1.00;;;;;;;20.09;36.32;98305.44;13023044;22;20102;-54
2022/01/23 18:51:37;;;;;;;1.17;0.90;;;;;;;20.11;36.27;98308.66;13045863;22;20016;-52
2022/01/23 18:57:04;;;;;;;1.38;1.00;;;;;;;20.14;36.46;98313.50;13046270;22;20086;-51
2022/01/23 19:02:29;;;;;;;1.13;0.90;;;;;;;20.14;36.46;98318.91;13067740;22;20022;-51
2022/01/23 19:07:58;;;;;;;1.55;0.85;;;;;;;20.14;36.41;98316.22;13046618;22;20025;-54
2022/01/23 19:13:18;;;;;;;1.20;1.00;;;;;;;20.17;36.42;98310.25;13025950;22;20073;-52
2022/01/23 19:18:39;;;;;;;0.98;0.80;;;;;;;20.20;36.47;98304.22;13046741;22;20011;-54
2022/01/23 19:24:00;;;;;;;1.20;0.93;;;;;;;20.22;36.35;98306.66;13046180;22;20382;-54
2022/01/23 19:29:28;;;;;;;1.77;1.00;;;;;;;20.24;36.25;98305.25;13021953;22;20019;-55
2022/01/23 19:34:48;;;;;;;1.13;0.93;;;;;;;20.26;36.09;98302.25;13046162;22;20018;-54
2022/01/23 19:40:16;;;;;;;1.67;1.10;;;;;;;20.28;36.26;98305.47;13045783;22;20075;-54
2022/01/23 19:45:36;;;;;;;2.60;0.95;;;;;;;20.34;36.04;98307.00;13003382;22;20040;-55
2022/01/23 19:50:57;;;;;;;1.27;0.82;;;;;;;20.37;36.02;98303.72;13044558;22;20080;-54
2022/01/23 19:56:16;;;;;;;1.10;1.00;;;;;;;20.40;36.26;98310.44;13044828;22;20015;-54
2022/01/23 20:01:36;;;;;;;0.90;0.90;;;;;;;20.42;36.26;98302.84;13065901;22;20015;-51
2022/01/23 20:06:56;;;;;;;1.77;0.95;;;;;;;20.46;36.30;98306.56;13045381;22;20025;-53
2022/01/23 20:17:54;;;;;;;1.20;0.80;;;;;;;20.54;36.17;98319.44;13045710;22;20025;-55
2022/01/23 20:23:14;;;;;;;1.17;0.90;;;;;;;20.57;36.30;98329.69;13045445;22;20039;-54
2022/01/23 20:28:34;;;;;;;1.10;0.77;;;;;;;20.62;36.16;98326.94;13043189;22;20019;-54
2022/01/23 20:33:53;;;;;;;0.80;0.80;;;;;;;20.66;36.23;98322.56;13065891;22;20011;-54
2022/01/23 20:39:14;;;;;;;1.00;0.90;;;;;;;20.69;36.10;98323.84;13044857;22;20037;-53
2022/01/23 20:44:36;;;;;;;1.65;0.80;;;;;;;20.74;35.97;98313.75;13044415;22;20015;-54
2022/01/23 20:49:58;;;;;;;0.77;0.77;;;;;;;20.78;36.01;98313.16;13065910;22;20438;-54
2022/01/23 20:55:18;;;;;;;0.82;0.75;;;;;;;20.83;35.96;98304.94;13044077;22;20011;-53
2022/01/23 21:00:38;;;;;;;0.80;0.80;;;;;;;20.87;35.96;98311.38;13020355;22;20015;-54
2022/01/23 21:05:58;;;;;;;1.13;0.82;;;;;;;20.90;35.97;98305.38;13044075;22;20030;-54
2022/01/23 21:11:23;;;;;;;1.38;0.80;;;;;;;20.94;35.80;98301.78;13021202;22;20412;-54
2022/01/23 21:22:36;;;;;;;1.30;0.90;;;;;;;21.03;35.94;98310.03;13043767;22;20015;-55
2022/01/23 21:38:15;;;;;;;2.40;0.90;;;;;;;21.12;36.10;98324.50;13065247;22;20639;-55
2022/01/23 21:39:38;;;;;;;1.58;0.88;;;;;;;21.15;35.89;98325.81;13065749;22;20019;-55
2022/01/23 21:44:57;;;;;;;2.85;1.00;;;;;;;21.18;35.88;98332.56;13065932;22;20022;-54
2022/01/23 21:50:17;;;;;;;1.00;0.82;;;;;;;21.22;35.76;98347.13;13066132;22;20116;-54
2022/01/23 21:55:37;;;;;;;2.50;0.80;;;;;;;21.25;35.70;98351.94;13044485;22;20022;-54
2022/01/23 22:00:57;;;;;;;0.82;0.82;;;;;;;21.26;35.69;98348.91;13045061;22;20094;-55
2022/01/23 22:06:16;;;;;;;0.95;0.85;;;;;;;21.28;35.55;98345.91;13044319;22;20029;-55
2022/01/23 22:11:55;;;;;;;1.02;0.80;;;;;;;21.28;35.64;98357.56;13065527;22;20017;-54
2022/01/23 22:17:15;;;;;;;1.55;0.90;;;;;;;21.28;35.72;98348.63;13040403;22;20020;-55
2022/01/23 22:22:57;;;;;;;1.10;0.80;;;;;;;21.29;35.68;98352.97;13063349;22;20068;-55
2022/01/23 22:28:13;;;;;;;1.55;0.90;;;;;;;21.28;35.82;98354.06;13066037;22;20015;-55
2022/01/23 22:33:32;;;;;;;1.48;1.00;;;;;;;21.30;35.84;98359.97;13066771;22;20011;-54
2022/01/23 22:38:52;;;;;;;1.67;0.90;;;;;;;21.29;35.68;98369.22;13045394;22;20094;-54
2022/01/23 22:44:15;;;;;;;2.55;0.90;;;;;;;21.28;35.86;98364.88;13045402;22;20019;-55
2022/01/23 22:49:34;;;;;;;1.02;0.80;;;;;;;21.28;35.76;98371.09;13046365;22;20076;-54
2022/01/23 22:54:54;;;;;;;1.63;1.20;;;;;;;21.29;35.73;98361.09;13045780;22;20022;-55
2022/01/23 23:00:31;;;;;;;0.82;0.82;;;;;;;21.27;35.88;98355.97;13046442;22;20228;-54
2022/01/23 23:05:50;;;;;;;2.17;0.95;;;;;;;21.27;35.92;98355.16;13044899;22;20022;-54
2022/01/23 23:11:13;;;;;;;1.08;0.90;;;;;;;21.26;35.99;98358.97;13044870;22;20053;-54
2022/01/23 23:16:35;;;;;;;1.85;1.08;;;;;;;21.25;36.13;98360.09;13046042;22;20015;-54
2022/01/23 23:21:57;;;;;;;1.48;0.80;;;;;;;21.24;36.11;98353.84;13045262;22;20024;-54
2022/01/23 23:27:16;;;;;;;2.28;1.05;;;;;;;21.24;36.30;98369.31;13045457;22;20011;-55
2022/01/23 23:32:36;;;;;;;2.08;1.00;;;;;;;21.22;36.40;98375.00;13068067;22;20077;-55
2022/01/23 23:37:55;;;;;;;1.23;0.90;;;;;;;21.23;36.50;98378.53;13047261;22;20015;-54
2022/01/23 23:43:27;;;;;;;3.33;1.08;;;;;;;21.20;36.61;98374.50;13068435;22;20019;-55
2022/01/23 23:48:55;;;;;;;1.67;0.90;;;;;;;21.19;36.71;98370.19;13067949;22;20016;-54
2022/01/23 23:54:16;;;;;;;1.55;0.95;;;;;;;21.19;36.66;98366.66;13066532;22;20019;-55
2022/01/23 23:59:35;;;;;;;2.83;1.02;;;;;;;21.17;36.71;98363.44;13047095;22;20015;-55
